Aérodrome :
LOGIN :

S'inscrire | Disclaimer

   EN    FR    IT 

 










Légende :    VFR   VFR Marginal   IFR   IFR Intensif   IFR Très Intensif
Visi : 
Plafond : 
>= 8 km
>= 3000ft
5 à 8 km
1000 à 3000 ft
1500m à 5 km
500 à 1000 ft
800 à 1500m
200 à 500 ft
< 800m
< 200 ft
Symboles :   Orages  Brouillard  Fortes neiges  Fortes précipitations  Vent > 20 kt
SIGMETs :   Divers  Orages  Givrage  Turbulence  Onde Orograph.  Cendres Volcan.







- Altitude de l'aérodrome : 1989 ft
- Code IATA : KLV


LKKV - Karlovy Vary

DERNIER METAR :
  • 230246Z 24006KT 200V270 9000 BKN003 BKN026 04/03 Q1026 RMK REG QNH 1022

METARs EXPIRÉS :
  • 230200Z 26006KT 9999 SCT012 BKN022 04/03 Q1027
  • 230100Z 21004KT 180V270 9999 BKN030 04/03 Q1027

TAF TAF LKKV
Valide du 23 à 00h jusqu'au 24 à 06h UTC


222300Z 2300/2406 23006KT 9999 SCT030
TEMPO 2302/2306 2500 BR BKN009
BECMG 2306/2309 26012KT 9999 BKN025
TEMPO 2309/2403 26016G30KT
BECMG 2312/2315 7000 -RA BKN017
TEMPO 2315/2406 3000 RA BKN007
BECMG 2403/2406 30014G26KT
Pas de NOTAMs connus pour ce terrain.



MET'MAP, la Météo Aéronautique d'un coup d'oeil ! - Copyright ORBIFLY Décembre 2007 - Disclaimer

ORBIFLY MET'MAP TEAM :

Programmation & Développement : Alexandra Zaïnal
Conception & Développement : Baudouin d'Aumeries
Co-Programmation & Développement : Marc-Olivier Méhu
Soutien technique & logistique : Manuel Goepfert

Contact : metmap@orbifly.com




SOURCES & CREDITS :

   NOAA